Terminal Aerodrome Forecast
Issued by NWS Cleveland, OH

Home | Current Version | Previous Version | Graphics & Text | Print | Product List | Glossary On
Versions: 1 2 3 4 5 6 7 8 9 10 11 12 13
000
FTUS41 KCLE 131734
TAFTOL
TAF
KTOL 131734Z 1318/1418 03006KT P6SM BKN250
     FM140900 06004KT P6SM OVC100
     FM141500 05003KT P6SM OVC050=

USA.gov is the U.S. government's official web portal to all federal, state and local government web resources and services.